createdAt,value
2022-08-18T00:00:30.919Z,1.40
2022-08-18T00:01:31.201Z,1.60
2022-08-18T00:02:31.554Z,1.70
2022-08-18T00:03:56.064Z,1.80
2022-08-18T00:04:36.347Z,2.00
2022-08-18T00:05:33.219Z,1.90
2022-08-18T00:06:32.472Z,1.80
2022-08-18T00:07:32.713Z,1.80
2022-08-18T00:08:36.023Z,1.70
2022-08-18T00:09:34.359Z,1.70
2022-08-18T00:10:33.520Z,1.70
2022-08-18T00:11:41.638Z,1.70
2022-08-18T00:12:34.984Z,1.70
2022-08-18T00:13:34.294Z,1.60
2022-08-18T00:14:34.534Z,1.70
2022-08-18T00:15:41.768Z,1.70
2022-08-18T00:16:36.015Z,1.70
2022-08-18T00:17:35.315Z,1.60
2022-08-18T00:18:35.592Z,1.90
2022-08-18T00:19:45.408Z,1.80
2022-08-18T00:20:37.074Z,1.80
2022-08-18T00:21:36.376Z,2.00
2022-08-18T00:22:36.624Z,1.70
2022-08-18T00:23:36.871Z,1.60
2022-08-18T00:24:37.107Z,1.70
2022-08-18T00:25:38.344Z,1.90
2022-08-18T00:26:37.657Z,1.60
2022-08-18T00:27:37.897Z,1.70
2022-08-18T00:28:38.147Z,1.90
2022-08-18T00:29:38.481Z,1.70
2022-08-18T00:30:38.718Z,1.90
2022-08-18T00:31:38.969Z,1.50
2022-08-18T00:32:39.209Z,1.70
2022-08-18T00:33:39.469Z,1.90
2022-08-18T00:34:39.710Z,1.80
2022-08-18T00:35:39.951Z,2.00
2022-08-18T00:36:40.192Z,1.90
2022-08-18T00:37:40.430Z,1.80
2022-08-18T00:38:40.671Z,1.80
2022-08-18T00:39:46.058Z,1.80
2022-08-18T00:40:42.142Z,1.60
2022-08-18T00:41:41.449Z,1.70
2022-08-18T00:42:41.691Z,1.60
2022-08-18T00:43:41.933Z,1.30
2022-08-18T00:44:42.183Z,1.80
2022-08-18T00:45:42.424Z,1.60
2022-08-18T00:46:42.664Z,1.70
2022-08-18T00:47:43.400Z,1.60
2022-08-18T00:48:48.827Z,1.40
2022-08-18T00:49:44.427Z,1.60
2022-08-18T00:50:43.734Z,1.70
2022-08-18T00:51:43.966Z,1.80
2022-08-18T00:52:44.206Z,1.80
2022-08-18T00:53:44.447Z,1.60
2022-08-18T00:54:44.687Z,1.60
2022-08-18T00:55:54.539Z,1.50
2022-08-18T00:56:48.109Z,1.60
2022-08-18T00:57:45.438Z,1.80
2022-08-18T00:58:45.690Z,1.70
2022-08-18T00:59:45.926Z,1.70
2022-08-18T01:00:46.236Z,1.60
2022-08-18T01:01:46.489Z,1.70
2022-08-18T01:02:46.733Z,1.70
2022-08-18T01:03:46.971Z,1.90
2022-08-18T01:04:47.220Z,1.70
2022-08-18T01:05:47.462Z,1.50
2022-08-18T01:06:47.709Z,1.60
2022-08-18T01:07:48.013Z,1.70
2022-08-18T01:08:48.244Z,1.50
2022-08-18T01:09:48.581Z,1.60
2022-08-18T01:10:48.823Z,1.60
2022-08-18T01:11:49.063Z,1.60
2022-08-18T01:12:49.302Z,1.80
2022-08-18T01:13:49.553Z,1.40
2022-08-18T01:14:49.804Z,1.80
2022-08-18T01:15:50.041Z,1.50
2022-08-18T01:16:52.337Z,1.80
2022-08-18T01:17:51.685Z,1.50
2022-08-18T01:18:50.797Z,1.70
2022-08-18T01:19:51.036Z,1.60
2022-08-18T01:20:51.297Z,1.50
2022-08-18T01:21:51.536Z,1.50
2022-08-18T01:22:51.795Z,1.50
2022-08-18T01:23:52.037Z,1.90
2022-08-18T01:24:52.287Z,1.50
2022-08-18T01:25:52.526Z,1.70
2022-08-18T01:26:52.798Z,1.60
2022-08-18T01:27:53.174Z,1.40
2022-08-18T01:28:53.318Z,1.50
2022-08-18T01:29:53.559Z,1.60
2022-08-18T01:30:53.799Z,1.80
2022-08-18T01:31:54.513Z,1.60
2022-08-18T01:32:54.280Z,1.70
2022-08-18T01:33:54.532Z,1.50
2022-08-18T01:34:54.780Z,1.80
2022-08-18T01:35:55.022Z,1.70
2022-08-18T01:36:55.358Z,1.70
2022-08-18T01:37:55.581Z,1.50
2022-08-18T01:38:55.831Z,1.90
2022-08-18T01:41:22.511Z,1.50
2022-08-18T01:41:22.597Z,1.60
2022-08-18T01:41:57.622Z,1.70
2022-08-18T01:42:56.924Z,1.50
2022-08-18T01:43:57.166Z,1.60
2022-08-18T01:44:57.414Z,1.60
2022-08-18T01:45:57.652Z,1.30
2022-08-18T01:46:57.886Z,1.70
2022-08-18T01:47:58.232Z,1.60
2022-08-18T01:48:58.437Z,1.40
2022-08-18T01:49:58.686Z,1.70
2022-08-18T01:50:58.930Z,1.60
2022-08-18T01:51:59.166Z,1.60
2022-08-18T01:52:59.408Z,1.60
2022-08-18T01:53:59.658Z,1.60
2022-08-18T01:54:59.908Z,1.70
2022-08-18T01:56:00.147Z,1.50
2022-08-18T01:57:00.398Z,1.50
2022-08-18T01:58:00.640Z,1.60
2022-08-18T01:59:00.890Z,1.60
2022-08-18T02:00:01.141Z,1.20
2022-08-18T02:01:01.385Z,1.70
2022-08-18T02:02:01.701Z,1.60
2022-08-18T02:03:02.813Z,1.50
2022-08-18T02:04:31.120Z,1.70
2022-08-18T02:05:03.461Z,1.50
2022-08-18T02:06:02.772Z,1.80
2022-08-18T02:07:04.349Z,1.70
2022-08-18T02:08:03.342Z,1.60
2022-08-18T02:09:03.610Z,1.70
2022-08-18T02:10:03.816Z,1.50
2022-08-18T02:11:04.083Z,1.60
2022-08-18T02:12:04.324Z,1.20
2022-08-18T02:13:04.565Z,1.50
2022-08-18T02:14:04.825Z,1.60
2022-08-18T02:15:05.063Z,1.40
2022-08-18T02:16:05.362Z,1.50
2022-08-18T02:17:05.593Z,1.60
2022-08-18T02:18:05.826Z,1.40
2022-08-18T02:19:06.077Z,1.80
2022-08-18T02:20:06.317Z,1.70
2022-08-18T02:21:06.565Z,1.50
2022-08-18T02:22:06.847Z,1.50
2022-08-18T02:23:07.090Z,1.70
2022-08-18T02:24:07.338Z,1.40
2022-08-18T02:25:07.578Z,1.50
2022-08-18T02:26:07.868Z,1.50
2022-08-18T02:27:08.129Z,1.40
2022-08-18T02:28:08.390Z,1.60
2022-08-18T02:29:08.619Z,1.60
2022-08-18T02:30:08.859Z,1.50
2022-08-18T02:31:09.100Z,1.40
2022-08-18T02:32:09.403Z,1.40
2022-08-18T02:33:09.641Z,1.50
2022-08-18T02:34:09.890Z,1.60
2022-08-18T02:35:11.811Z,1.50
2022-08-18T02:36:10.363Z,1.70
2022-08-18T02:37:14.862Z,1.50
2022-08-18T02:38:10.944Z,1.50
2022-08-18T02:39:12.175Z,1.60
2022-08-18T02:40:11.545Z,1.50
2022-08-18T02:41:11.726Z,1.50
2022-08-18T02:42:11.974Z,1.90
2022-08-18T02:43:12.215Z,1.40
2022-08-18T02:44:12.475Z,1.50
2022-08-18T02:45:12.719Z,1.60
2022-08-18T02:46:12.996Z,1.30
2022-08-18T02:47:13.243Z,1.60
2022-08-18T02:48:13.488Z,1.40
2022-08-18T02:49:13.774Z,1.30
2022-08-18T02:50:14.027Z,1.50
2022-08-18T02:51:14.257Z,1.30
2022-08-18T02:52:14.498Z,1.70
2022-08-18T02:53:14.738Z,1.40
2022-08-18T02:54:14.989Z,1.50
2022-08-18T02:55:15.229Z,1.30
2022-08-18T02:56:15.480Z,1.50
2022-08-18T02:57:15.719Z,1.40
2022-08-18T02:58:15.960Z,1.60
2022-08-18T02:59:16.199Z,1.40
2022-08-18T03:00:16.460Z,1.20
2022-08-18T03:01:16.858Z,1.40
2022-08-18T03:02:17.052Z,1.50
2022-08-18T03:03:17.301Z,1.50
2022-08-18T03:04:17.602Z,1.30
2022-08-18T03:05:17.830Z,1.70
2022-08-18T03:06:18.073Z,1.60
2022-08-18T03:07:18.327Z,1.60
2022-08-18T03:08:18.572Z,1.30
2022-08-18T03:09:18.825Z,1.40
2022-08-18T03:10:31.618Z,1.50
2022-08-18T03:11:20.294Z,1.40
2022-08-18T03:12:19.594Z,1.40
2022-08-18T03:13:19.835Z,1.70
2022-08-18T03:14:20.085Z,1.60
2022-08-18T03:15:20.326Z,1.40
2022-08-18T03:16:20.574Z,1.60
2022-08-18T03:17:20.807Z,1.50
2022-08-18T03:18:21.057Z,1.70
2022-08-18T03:19:21.305Z,1.50
2022-08-18T03:20:30.137Z,1.40
2022-08-18T03:21:22.832Z,1.70
2022-08-18T03:22:28.230Z,1.50
2022-08-18T03:23:27.018Z,1.40
2022-08-18T03:24:23.887Z,1.40
2022-08-18T03:25:22.839Z,1.50
2022-08-18T03:26:23.079Z,1.60
2022-08-18T03:27:23.324Z,1.40
2022-08-18T03:28:23.562Z,1.30
2022-08-18T03:29:26.659Z,1.40
2022-08-18T03:30:25.040Z,1.90
2022-08-18T03:31:24.332Z,1.60
2022-08-18T03:32:24.601Z,1.80
2022-08-18T03:33:24.841Z,1.30
2022-08-18T03:34:25.132Z,1.50
2022-08-18T03:35:25.363Z,1.60
2022-08-18T03:36:25.613Z,1.30
2022-08-18T03:37:25.853Z,1.60
2022-08-18T03:38:26.104Z,1.30
2022-08-18T03:39:26.429Z,1.70
2022-08-18T03:40:26.653Z,1.60
2022-08-18T03:41:57.474Z,1.60
2022-08-18T03:42:28.125Z,1.50
2022-08-18T03:43:50.963Z,1.60
2022-08-18T03:44:28.743Z,1.50
2022-08-18T03:45:27.897Z,1.50
2022-08-18T03:46:28.145Z,1.40
2022-08-18T03:47:28.374Z,1.40
2022-08-18T03:48:28.607Z,1.70
2022-08-18T03:49:28.867Z,1.40
2022-08-18T03:50:29.109Z,1.40
2022-08-18T03:51:29.348Z,1.30
2022-08-18T03:52:29.598Z,1.40
2022-08-18T03:53:29.869Z,1.50
2022-08-18T03:54:30.129Z,1.40
2022-08-18T03:55:30.359Z,1.50
2022-08-18T03:56:30.600Z,1.20
2022-08-18T03:57:30.840Z,1.50
2022-08-18T03:58:31.118Z,1.50
2022-08-18T03:59:31.360Z,1.40
2022-08-18T04:00:31.603Z,1.40
2022-08-18T04:01:31.871Z,1.50
2022-08-18T04:02:32.103Z,1.80
2022-08-18T04:03:32.348Z,1.30
2022-08-18T04:04:32.592Z,1.50
2022-08-18T04:05:32.823Z,1.40
2022-08-18T04:06:33.083Z,1.40
2022-08-18T04:07:33.322Z,1.70
2022-08-18T04:08:33.564Z,1.50
2022-08-18T04:09:33.806Z,1.50
2022-08-18T04:10:34.053Z,1.50
2022-08-18T04:11:35.795Z,1.30
2022-08-18T04:12:34.606Z,1.40
2022-08-18T04:13:34.846Z,1.40
2022-08-18T04:14:35.097Z,1.70
2022-08-18T04:15:35.338Z,1.50
2022-08-18T04:16:35.589Z,1.40
2022-08-18T04:17:35.842Z,1.50
2022-08-18T04:18:37.068Z,1.80
2022-08-18T04:19:36.378Z,1.50
2022-08-18T04:20:36.618Z,1.40
2022-08-18T04:21:36.858Z,1.50
2022-08-18T04:22:37.147Z,1.60
2022-08-18T04:23:43.707Z,1.50
2022-08-18T04:24:38.629Z,1.80
2022-08-18T04:25:37.880Z,1.60
2022-08-18T04:26:38.120Z,1.70
2022-08-18T04:27:38.370Z,1.40
2022-08-18T04:28:38.612Z,1.40
2022-08-18T04:29:38.852Z,1.50
2022-08-18T04:30:39.100Z,1.60
2022-08-18T04:31:39.341Z,1.70
2022-08-18T04:32:39.605Z,1.30
2022-08-18T04:33:39.842Z,1.60
2022-08-18T04:34:40.181Z,1.70
2022-08-18T04:35:40.425Z,1.50
2022-08-18T04:36:40.666Z,1.50
2022-08-18T04:37:41.720Z,1.40
2022-08-18T04:38:41.235Z,1.70
2022-08-18T04:39:41.542Z,1.60
2022-08-18T04:40:41.757Z,1.50
2022-08-18T04:41:41.995Z,1.30
2022-08-18T04:42:43.153Z,1.50
2022-08-18T04:43:42.577Z,1.60
2022-08-18T04:44:42.818Z,1.60
2022-08-18T04:45:43.058Z,1.30
2022-08-18T04:46:43.298Z,1.40
2022-08-18T04:47:43.537Z,1.60
2022-08-18T04:48:43.789Z,1.40
2022-08-18T04:49:44.031Z,1.50
2022-08-18T04:50:44.283Z,1.50
2022-08-18T04:52:37.117Z,1.70
2022-08-18T04:52:45.747Z,1.50
2022-08-18T04:53:45.061Z,1.70
2022-08-18T04:54:45.313Z,1.50
2022-08-18T04:55:45.551Z,1.50
2022-08-18T04:56:45.792Z,1.50
2022-08-18T04:57:46.118Z,1.40
2022-08-18T04:58:46.371Z,1.50
2022-08-18T04:59:46.641Z,1.40
2022-08-18T05:00:46.972Z,1.60
2022-08-18T05:01:47.328Z,1.60
2022-08-18T05:02:47.554Z,1.40
2022-08-18T05:03:50.165Z,1.40
2022-08-18T05:04:48.115Z,1.40
2022-08-18T05:05:48.375Z,1.50
2022-08-18T05:06:48.633Z,1.40
2022-08-18T05:07:48.949Z,1.70
2022-08-18T05:08:49.186Z,1.70
2022-08-18T05:09:49.436Z,1.40
2022-08-18T05:10:49.696Z,1.70
2022-08-18T05:11:49.948Z,1.70
2022-08-18T05:12:50.206Z,1.50
2022-08-18T05:13:50.459Z,1.50
2022-08-18T05:14:50.726Z,1.90
2022-08-18T05:16:09.606Z,1.40
2022-08-18T05:16:52.218Z,1.50
2022-08-18T05:17:51.605Z,1.40
2022-08-18T05:18:51.759Z,1.50
2022-08-18T05:19:51.989Z,1.50
2022-08-18T05:20:52.271Z,1.60
2022-08-18T05:21:52.531Z,1.40
2022-08-18T05:22:52.787Z,1.40
2022-08-18T05:23:53.049Z,1.50
2022-08-18T05:24:53.301Z,1.40
2022-08-18T05:25:53.562Z,1.90
2022-08-18T05:26:53.861Z,1.50
2022-08-18T05:27:54.181Z,1.60
2022-08-18T05:29:04.106Z,1.60
2022-08-18T05:29:55.663Z,1.40
2022-08-18T05:30:54.998Z,1.20
2022-08-18T05:31:55.211Z,1.50
2022-08-18T05:32:55.463Z,1.80
2022-08-18T05:33:55.727Z,1.50
2022-08-18T05:34:55.995Z,1.40
2022-08-18T05:35:56.245Z,1.50
2022-08-18T05:36:56.507Z,1.60
2022-08-18T05:37:56.756Z,1.30
2022-08-18T05:38:57.037Z,1.50
2022-08-18T05:39:57.350Z,1.50
2022-08-18T05:40:57.597Z,1.80
2022-08-18T05:41:57.865Z,1.90
2022-08-18T05:42:58.136Z,2.50
2022-08-18T05:43:58.407Z,2.80
2022-08-18T05:44:58.678Z,2.80
2022-08-18T05:45:58.939Z,2.70
2022-08-18T05:46:59.199Z,2.40
2022-08-18T05:47:59.466Z,2.80
2022-08-18T05:48:59.732Z,2.50
2022-08-18T05:49:59.989Z,2.80
2022-08-18T05:51:00.250Z,2.70
2022-08-18T05:52:00.500Z,2.70
2022-08-18T05:53:00.788Z,2.70
2022-08-18T05:54:01.020Z,2.60
2022-08-18T05:55:01.281Z,2.90
2022-08-18T05:56:01.550Z,2.80
2022-08-18T05:57:01.800Z,2.90
2022-08-18T05:58:02.057Z,3.60
2022-08-18T05:59:02.332Z,3.10
2022-08-18T06:00:02.590Z,3.20
2022-08-18T06:01:02.859Z,2.90
2022-08-18T06:02:03.105Z,3.20
2022-08-18T06:03:03.407Z,2.90
2022-08-18T06:04:03.644Z,3.10
2022-08-18T06:05:03.945Z,3.20
2022-08-18T06:06:04.196Z,3.20
2022-08-18T06:07:04.456Z,3.40
2022-08-18T06:08:04.716Z,3.10
2022-08-18T06:09:04.974Z,2.90
2022-08-18T06:10:05.227Z,3.00
2022-08-18T06:11:05.489Z,3.40
2022-08-18T06:12:06.718Z,3.30
2022-08-18T06:13:06.039Z,3.40
2022-08-18T06:14:06.288Z,3.40
2022-08-18T06:15:06.686Z,3.50
2022-08-18T06:16:06.803Z,3.10
2022-08-18T06:17:07.060Z,3.50
2022-08-18T06:18:07.330Z,3.80
2022-08-18T06:19:07.591Z,3.30
2022-08-18T06:20:07.842Z,3.20
2022-08-18T06:21:08.101Z,3.40
2022-08-18T06:22:08.354Z,3.20
2022-08-18T06:23:08.611Z,3.30
2022-08-18T06:24:08.869Z,3.20
2022-08-18T06:25:09.132Z,3.20
2022-08-18T06:26:09.387Z,3.50
2022-08-18T06:27:09.644Z,2.90
2022-08-18T06:28:09.894Z,3.10
2022-08-18T06:29:10.184Z,3.30
2022-08-18T06:30:10.445Z,3.10
2022-08-18T06:31:10.734Z,3.40
2022-08-18T06:32:10.994Z,3.20
2022-08-18T06:33:11.257Z,3.20
2022-08-18T06:34:11.508Z,3.30
2022-08-18T06:35:11.816Z,2.80
2022-08-18T06:36:12.074Z,3.20
2022-08-18T06:37:12.378Z,3.10
2022-08-18T06:38:12.635Z,3.10
2022-08-18T06:39:12.898Z,3.50
2022-08-18T06:40:13.236Z,2.90
2022-08-18T06:41:42.101Z,3.30
2022-08-18T06:42:14.678Z,3.20
2022-08-18T06:43:13.999Z,3.30
2022-08-18T06:44:14.258Z,3.40
2022-08-18T06:45:14.523Z,2.90
2022-08-18T06:46:14.781Z,3.30
2022-08-18T06:47:15.044Z,3.20
2022-08-18T06:48:15.938Z,3.30
2022-08-18T06:49:15.540Z,3.60
2022-08-18T06:50:15.802Z,2.70
2022-08-18T06:51:16.062Z,3.30
2022-08-18T06:52:16.312Z,3.00
2022-08-18T06:53:26.745Z,3.40
2022-08-18T06:54:17.802Z,3.40
2022-08-18T06:55:17.123Z,3.30
2022-08-18T06:56:26.186Z,3.10
2022-08-18T06:57:18.642Z,2.60
2022-08-18T06:58:17.957Z,2.70
2022-08-18T06:59:18.211Z,2.90
2022-08-18T07:00:18.465Z,2.50
2022-08-18T07:01:18.823Z,2.90
2022-08-18T07:02:19.085Z,2.70
2022-08-18T07:03:19.347Z,3.30
2022-08-18T07:04:19.606Z,3.00
2022-08-18T07:05:19.867Z,2.90
2022-08-18T07:06:20.157Z,2.90
2022-08-18T07:07:20.447Z,2.70
2022-08-18T07:08:20.788Z,2.90
2022-08-18T07:09:21.008Z,2.70
2022-08-18T07:10:21.289Z,2.90
2022-08-18T07:11:21.538Z,3.00
2022-08-18T07:12:21.809Z,2.50
2022-08-18T07:13:22.129Z,2.40
2022-08-18T07:14:22.387Z,2.30
2022-08-18T07:15:22.642Z,2.20
2022-08-18T07:16:40.359Z,2.10
2022-08-18T07:17:42.598Z,2.50
2022-08-18T07:18:24.423Z,2.80
2022-08-18T07:19:23.741Z,2.60
2022-08-18T07:20:24.132Z,3.20
2022-08-18T07:21:24.303Z,3.20
2022-08-18T07:22:29.992Z,2.80
2022-08-18T07:23:25.792Z,2.80
2022-08-18T07:24:25.686Z,3.20
2022-08-18T07:25:25.363Z,3.00
2022-08-18T07:26:25.624Z,2.50
2022-08-18T07:27:25.884Z,2.60
2022-08-18T07:28:26.166Z,3.30
2022-08-18T07:29:26.425Z,3.30
2022-08-18T07:30:26.686Z,3.10
2022-08-18T07:31:26.958Z,2.90
2022-08-18T07:32:27.266Z,2.80
2022-08-18T07:33:27.555Z,3.10
2022-08-18T07:34:27.798Z,3.00
2022-08-18T07:35:28.071Z,3.20
2022-08-18T07:36:28.329Z,3.50
2022-08-18T07:37:29.165Z,3.20
2022-08-18T07:38:42.590Z,3.00
2022-08-18T07:39:30.219Z,3.40
2022-08-18T07:40:29.400Z,3.20
2022-08-18T07:41:29.693Z,3.20
2022-08-18T07:42:37.218Z,3.40
2022-08-18T07:43:31.218Z,3.70
2022-08-18T07:44:30.511Z,2.90
2022-08-18T07:45:30.794Z,3.20
2022-08-18T07:46:31.063Z,3.40
2022-08-18T07:47:31.340Z,2.90
2022-08-18T07:48:39.755Z,3.40
2022-08-18T07:49:32.861Z,3.40
2022-08-18T07:50:58.352Z,3.20
2022-08-18T07:51:36.922Z,3.10
2022-08-18T07:52:43.955Z,3.30
2022-08-18T07:53:33.931Z,3.00
2022-08-18T07:54:50.189Z,3.10
2022-08-18T07:55:34.473Z,3.80
2022-08-18T07:56:33.795Z,3.30
2022-08-18T07:57:41.822Z,3.80
2022-08-18T07:58:35.325Z,3.20
2022-08-18T07:59:34.648Z,3.90
2022-08-18T08:00:57.747Z,3.10
2022-08-18T08:01:36.196Z,3.40
2022-08-18T08:02:35.408Z,3.40
2022-08-18T08:03:35.670Z,3.30
2022-08-18T08:04:35.918Z,3.10
2022-08-18T08:05:36.178Z,3.10
2022-08-18T08:06:36.498Z,3.10
2022-08-18T08:07:36.777Z,3.50
2022-08-18T08:08:37.019Z,3.30
2022-08-18T08:09:37.241Z,3.40
2022-08-18T08:10:37.499Z,3.30
2022-08-18T08:11:37.758Z,3.20
2022-08-18T08:12:38.010Z,2.70
2022-08-18T08:13:54.663Z,3.10
2022-08-18T08:14:39.523Z,3.00
2022-08-18T08:15:38.841Z,3.20
2022-08-18T08:16:39.101Z,2.90
2022-08-18T08:17:39.389Z,3.10
2022-08-18T08:18:39.642Z,2.70
2022-08-18T08:19:59.537Z,3.20
2022-08-18T08:20:41.163Z,3.00
2022-08-18T08:21:40.473Z,3.30
2022-08-18T08:22:40.734Z,3.20
2022-08-18T08:23:44.921Z,3.30
2022-08-18T08:24:41.325Z,3.30
2022-08-18T08:25:46.197Z,3.50
2022-08-18T08:26:42.845Z,3.70
2022-08-18T08:27:42.076Z,3.40
2022-08-18T08:28:42.334Z,3.40
2022-08-18T08:29:42.591Z,2.80
2022-08-18T08:30:42.847Z,2.70
2022-08-18T08:31:43.116Z,3.20
2022-08-18T08:32:43.377Z,2.50
2022-08-18T08:33:43.646Z,2.40
2022-08-18T08:34:43.906Z,2.90
2022-08-18T08:35:47.374Z,2.40
2022-08-18T08:36:45.411Z,2.90
2022-08-18T08:37:44.849Z,2.80
2022-08-18T08:38:45.212Z,2.90
2022-08-18T08:39:45.455Z,2.90
2022-08-18T08:40:45.595Z,2.70
2022-08-18T08:41:45.875Z,2.90
2022-08-18T08:42:46.141Z,2.90
2022-08-18T08:43:46.400Z,3.10
2022-08-18T08:44:58.819Z,2.60
2022-08-18T08:45:47.903Z,2.30
2022-08-18T08:46:47.248Z,2.90
2022-08-18T08:47:47.610Z,2.80
2022-08-18T08:48:47.870Z,2.90
2022-08-18T08:49:59.956Z,3.00
2022-08-18T08:50:49.363Z,3.00
2022-08-18T08:51:48.673Z,2.80
2022-08-18T08:52:48.954Z,2.80
2022-08-18T08:53:49.217Z,2.90
2022-08-18T08:54:49.476Z,3.40
2022-08-18T08:55:49.747Z,3.20
2022-08-18T08:56:50.026Z,3.20
2022-08-18T08:57:50.424Z,2.80
2022-08-18T08:58:50.957Z,3.00
2022-08-18T08:59:50.887Z,2.40
2022-08-18T09:00:51.703Z,2.70
2022-08-18T09:01:51.537Z,3.10
2022-08-18T09:02:51.798Z,2.90
2022-08-18T09:03:52.079Z,2.30
2022-08-18T09:04:54.766Z,2.40
2022-08-18T09:05:56.877Z,2.30
2022-08-18T09:06:53.849Z,2.50
2022-08-18T09:07:53.177Z,2.20
2022-08-18T09:08:53.450Z,3.50
2022-08-18T09:09:53.703Z,2.30
2022-08-18T09:10:53.962Z,3.00
2022-08-18T09:11:54.233Z,2.50
2022-08-18T09:12:54.492Z,3.00
2022-08-18T09:13:54.762Z,2.90
2022-08-18T09:14:55.032Z,2.70
2022-08-18T09:15:55.767Z,2.90
2022-08-18T09:16:55.584Z,3.20
2022-08-18T09:17:55.864Z,3.10
2022-08-18T09:18:56.142Z,2.60
2022-08-18T09:19:56.415Z,2.80
2022-08-18T09:20:56.686Z,3.00
2022-08-18T09:21:56.967Z,3.10
2022-08-18T09:22:57.238Z,3.00
2022-08-18T09:23:57.505Z,3.30
2022-08-18T09:24:57.787Z,3.30
2022-08-18T09:25:58.057Z,3.10
2022-08-18T09:26:58.336Z,2.90
2022-08-18T09:28:14.037Z,3.20
2022-08-18T09:28:59.857Z,3.10
2022-08-18T09:29:59.187Z,3.40
2022-08-18T09:30:59.476Z,2.70
2022-08-18T09:31:59.753Z,3.30
2022-08-18T09:33:00.018Z,2.80
2022-08-18T09:34:05.060Z,3.20
2022-08-18T09:35:01.560Z,3.00
2022-08-18T09:36:00.909Z,3.00
2022-08-18T09:37:01.223Z,3.00
2022-08-18T09:38:01.557Z,3.20
2022-08-18T09:39:01.790Z,2.80
2022-08-18T09:40:12.587Z,3.10
2022-08-18T09:41:03.764Z,3.00
2022-08-18T09:42:03.178Z,3.20
2022-08-18T09:43:03.124Z,3.00
2022-08-18T09:44:04.042Z,3.20
2022-08-18T09:45:04.178Z,3.20
2022-08-18T09:46:03.704Z,3.30
2022-08-18T09:47:03.994Z,3.00
2022-08-18T09:48:04.258Z,3.50
2022-08-18T09:49:04.525Z,3.70
2022-08-18T09:50:04.754Z,3.60
2022-08-18T09:51:05.064Z,3.20
2022-08-18T09:52:05.346Z,3.20
2022-08-18T09:53:05.626Z,3.20
2022-08-18T09:54:05.906Z,3.00
2022-08-18T09:55:06.236Z,3.10
2022-08-18T09:56:06.533Z,3.30
2022-08-18T09:57:06.807Z,3.00
2022-08-18T09:58:07.058Z,3.10
2022-08-18T10:00:08.567Z,3.10
2022-08-18T10:01:07.830Z,3.00
2022-08-18T10:02:14.048Z,2.60
2022-08-18T10:03:09.323Z,3.10
2022-08-18T10:04:08.649Z,3.00
2022-08-18T10:05:08.989Z,3.20
2022-08-18T10:06:12.387Z,2.90
2022-08-18T10:07:09.514Z,2.80
2022-08-18T10:08:09.761Z,3.10
2022-08-18T10:09:18.136Z,2.90
2022-08-18T10:10:56.973Z,3.40
2022-08-18T10:11:11.602Z,2.80
2022-08-18T10:12:15.806Z,3.20
2022-08-18T10:13:12.062Z,3.00
2022-08-18T10:14:11.383Z,3.00
2022-08-18T10:15:11.635Z,3.00
2022-08-18T10:16:11.867Z,3.40
2022-08-18T10:17:23.842Z,2.90
2022-08-18T10:18:13.405Z,3.40
2022-08-18T10:19:12.775Z,3.20
2022-08-18T10:20:25.944Z,2.80
2022-08-18T10:21:14.333Z,3.30
2022-08-18T10:22:13.657Z,3.10
2022-08-18T10:23:14.004Z,2.70
2022-08-18T10:24:35.069Z,3.00
2022-08-18T10:25:23.622Z,3.10
2022-08-18T10:26:15.807Z,3.30
2022-08-18T10:27:15.057Z,3.20
2022-08-18T10:28:15.328Z,2.90
2022-08-18T10:29:15.608Z,3.30
2022-08-18T10:30:15.828Z,2.90
2022-08-18T10:31:16.128Z,3.20
2022-08-18T10:32:16.391Z,3.00
2022-08-18T10:33:17.835Z,3.00
2022-08-18T10:34:19.272Z,2.70
2022-08-18T10:35:17.261Z,2.80
2022-08-18T10:36:17.601Z,3.10
2022-08-18T10:37:19.446Z,2.80
2022-08-18T10:38:18.141Z,3.00
2022-08-18T10:39:18.482Z,2.60
2022-08-18T10:40:21.391Z,2.80
2022-08-18T10:41:18.961Z,2.90
2022-08-18T10:42:19.283Z,2.90
2022-08-18T10:44:29.290Z,2.50
2022-08-18T10:46:24.365Z,3.30
2022-08-18T10:47:20.633Z,3.50
2022-08-18T10:48:24.358Z,3.50
2022-08-18T10:49:22.290Z,3.20
2022-08-18T10:50:21.455Z,2.90
2022-08-18T10:51:22.750Z,2.80
2022-08-18T10:52:22.041Z,2.80
2022-08-18T10:53:38.927Z,3.00
2022-08-18T10:54:23.545Z,3.30
2022-08-18T10:55:22.878Z,2.80
2022-08-18T10:56:26.759Z,2.80
2022-08-18T10:57:23.436Z,2.50
2022-08-18T10:58:23.991Z,2.50
2022-08-18T10:59:28.205Z,3.00
2022-08-18T11:00:25.170Z,2.90
2022-08-18T11:01:24.537Z,3.20
2022-08-18T11:02:24.802Z,2.80
2022-08-18T11:03:50.627Z,2.60
2022-08-18T11:04:33.634Z,2.60
2022-08-18T11:05:26.611Z,2.60
2022-08-18T11:06:26.897Z,3.00
2022-08-18T11:07:26.213Z,2.80
2022-08-18T11:08:26.580Z,2.70
2022-08-18T11:09:26.843Z,2.90
2022-08-18T11:10:29.789Z,2.60
2022-08-18T11:12:28.573Z,2.60
2022-08-18T11:13:27.884Z,2.80
2022-08-18T11:14:28.164Z,2.90
2022-08-18T11:15:29.057Z,3.20
2022-08-18T11:16:29.683Z,3.50
2022-08-18T11:17:29.004Z,3.40
2022-08-18T11:18:30.138Z,3.30
2022-08-18T11:19:29.512Z,3.40
2022-08-18T11:20:29.766Z,3.10
2022-08-18T11:21:30.045Z,3.50
2022-08-18T11:22:32.062Z,3.30
2022-08-18T11:23:30.640Z,3.40
2022-08-18T11:24:30.909Z,3.40
2022-08-18T11:25:31.222Z,3.10
2022-08-18T11:26:31.457Z,3.20
2022-08-18T11:27:31.717Z,3.00
2022-08-18T11:28:32.657Z,3.60
2022-08-18T11:29:32.895Z,3.40
2022-08-18T11:30:32.546Z,3.10
2022-08-18T11:31:32.828Z,3.10
2022-08-18T11:32:33.080Z,3.20
2022-08-18T11:33:33.379Z,3.20
2022-08-18T11:34:33.731Z,3.50
2022-08-18T11:35:34.281Z,3.10
2022-08-18T11:36:34.281Z,3.40
2022-08-18T11:37:49.828Z,2.80
2022-08-18T11:38:35.772Z,3.20
2022-08-18T11:39:37.792Z,3.10
2022-08-18T11:41:48.406Z,3.10
2022-08-18T11:42:36.953Z,3.00
2022-08-18T11:43:41.103Z,3.10
2022-08-18T11:44:37.503Z,3.20
2022-08-18T11:45:36.733Z,3.20
2022-08-18T11:46:37.049Z,3.10
2022-08-18T11:47:37.278Z,2.80
2022-08-18T11:48:46.535Z,2.80
2022-08-18T11:49:38.845Z,3.30
2022-08-18T11:50:38.155Z,3.10
2022-08-18T11:51:38.415Z,3.20
2022-08-18T11:52:38.676Z,3.10
2022-08-18T11:53:38.957Z,3.10
2022-08-18T11:54:39.287Z,3.20
2022-08-18T11:55:40.526Z,3.00
2022-08-18T11:56:40.797Z,3.30
2022-08-18T11:57:42.036Z,2.90
2022-08-18T11:58:41.309Z,3.00
2022-08-18T11:59:54.935Z,2.80
2022-08-18T12:00:42.914Z,3.00
2022-08-18T12:01:42.363Z,2.90
2022-08-18T12:02:41.470Z,2.90
2022-08-18T12:03:41.820Z,3.00
2022-08-18T12:04:42.039Z,2.80
2022-08-18T12:05:45.847Z,2.90
2022-08-18T12:06:43.542Z,3.10
2022-08-18T12:07:57.181Z,3.00
2022-08-18T12:08:57.905Z,3.00
2022-08-18T12:10:17.007Z,3.20
2022-08-18T12:10:44.600Z,3.50
2022-08-18T12:11:44.882Z,3.00
2022-08-18T12:12:44.193Z,3.00
2022-08-18T12:13:44.444Z,3.40
2022-08-18T12:14:44.673Z,3.40
2022-08-18T12:15:47.554Z,3.50
2022-08-18T12:16:46.618Z,3.60
2022-08-18T12:17:52.496Z,3.00
2022-08-18T12:18:46.715Z,4.10
2022-08-18T12:19:46.064Z,3.60
2022-08-18T12:20:46.336Z,3.50
2022-08-18T12:21:47.586Z,3.60
2022-08-18T12:22:46.899Z,3.90
2022-08-18T12:23:49.427Z,3.60
2022-08-18T12:24:48.590Z,4.40
2022-08-18T12:25:47.667Z,3.80
2022-08-18T12:26:47.995Z,3.50
2022-08-18T12:27:48.312Z,3.70
2022-08-18T12:28:48.550Z,3.10
2022-08-18T12:29:48.809Z,3.40
2022-08-18T12:30:49.091Z,3.40
2022-08-18T12:31:50.330Z,3.30
2022-08-18T12:32:56.234Z,3.00
2022-08-18T12:34:00.692Z,3.00
2022-08-18T12:34:51.191Z,3.10
2022-08-18T12:35:50.431Z,3.10
2022-08-18T12:36:50.721Z,3.40
2022-08-18T12:38:12.398Z,3.40
2022-08-18T12:38:56.046Z,3.00
2022-08-18T12:39:51.640Z,3.20
2022-08-18T12:40:51.844Z,3.10
2022-08-18T12:42:55.668Z,3.20
2022-08-18T12:43:58.311Z,3.70
2022-08-18T12:44:53.892Z,3.10
2022-08-18T12:45:53.224Z,3.10
2022-08-18T12:46:53.496Z,3.30
2022-08-18T12:47:53.765Z,3.40
2022-08-18T12:48:54.177Z,3.40
2022-08-18T12:49:54.329Z,3.60
2022-08-18T12:50:59.857Z,3.80
2022-08-18T12:51:55.960Z,3.10
2022-08-18T12:52:55.177Z,3.40
2022-08-18T12:53:59.650Z,3.60
2022-08-18T12:54:56.117Z,4.20
2022-08-18T12:55:56.019Z,3.90
2022-08-18T12:56:56.278Z,3.30
2022-08-18T12:57:56.537Z,3.30
2022-08-18T12:58:56.839Z,3.80
2022-08-18T12:59:57.109Z,3.90
2022-08-18T13:00:57.486Z,3.90
2022-08-18T13:01:58.539Z,3.20
2022-08-18T13:02:57.998Z,4.00
2022-08-18T13:04:10.648Z,3.20
2022-08-18T13:04:59.491Z,3.50
2022-08-18T13:05:58.723Z,4.10
2022-08-18T13:07:01.933Z,3.70
2022-08-18T13:08:00.304Z,3.70
2022-08-18T13:08:59.642Z,4.60
2022-08-18T13:09:59.913Z,4.50
2022-08-18T13:11:00.180Z,3.80
2022-08-18T13:12:01.424Z,3.60
2022-08-18T13:13:00.755Z,3.60
2022-08-18T13:14:01.017Z,3.80
2022-08-18T13:15:02.245Z,3.20
2022-08-18T13:16:03.675Z,3.30
2022-08-18T13:17:01.845Z,3.40
2022-08-18T13:18:02.104Z,3.40
2022-08-18T13:19:02.366Z,3.60
2022-08-18T13:20:02.623Z,3.40
2022-08-18T13:21:02.866Z,3.50
2022-08-18T13:22:03.525Z,3.90
2022-08-18T13:23:03.468Z,3.20
2022-08-18T13:24:04.716Z,3.20
2022-08-18T13:25:05.410Z,3.40
2022-08-18T13:26:04.362Z,3.20
2022-08-18T13:27:04.619Z,3.30
2022-08-18T13:28:05.869Z,3.80